Mc Faddin, Texas
Current Conditions -  °F | °C
As of 6:35 PM on Saturday 25 Oct 2014 (Local Time) from KPKV Reporting Station
Clear Clear  
Wind Chill: 75°   Ceiling: Unl
Heat Index: 75°   Visibility: 10mi
Dew Point: 62°   Wind: 8mph
Humidity: 62%   Direction: 140°SE
Pressure: 30.1"   Gusts: NA
Location:  28.5526°N, 97.018°W
Report Text: KPKV 252335Z AUTO 14007KT 10SM CLR 24/17 A3010 RMK AO2 T02410165
Loading
Personal Weather Stations






























Interactive Weather Map
Tropical Storm Tracking
New forecast layout! Learn more

10-Day Weather Forecast

Advertisements
Track Severe Weather on mobile